createdAt,value
2016-11-27T00:02:20.404Z,2.67
2016-11-27T00:07:17.913Z,2.68
2016-11-27T00:12:14.443Z,2.67
2016-11-27T00:17:11.771Z,2.64
2016-11-27T00:22:07.915Z,2.65
2016-11-27T00:27:05.114Z,2.83
2016-11-27T00:32:01.661Z,2.65
2016-11-27T00:36:57.903Z,2.68
2016-11-27T00:41:54.359Z,2.77
2016-11-27T00:46:50.601Z,2.83
2016-11-27T00:51:47.421Z,2.80
2016-11-27T00:56:43.951Z,2.67
2016-11-27T01:01:40.826Z,2.65
2016-11-27T01:06:37.221Z,2.64
2016-11-27T01:11:33.626Z,2.68
2016-11-27T01:16:29.793Z,2.74
2016-11-27T01:21:26.170Z,2.80
2016-11-27T01:26:22.425Z,2.80
2016-11-27T01:31:18.843Z,2.87
2016-11-27T01:36:15.341Z,2.95
2016-11-27T01:41:12.003Z,2.95
2016-11-27T01:46:08.554Z,2.87
2016-11-27T01:51:04.796Z,2.83
2016-11-27T01:56:01.121Z,2.97
2016-11-27T02:00:57.472Z,2.98
2016-11-27T02:05:53.795Z,3.07
2016-11-27T02:10:50.176Z,3.04
2016-11-27T02:15:46.461Z,3.21
2016-11-27T02:20:43.070Z,3.26
2016-11-27T02:25:40.194Z,3.31
2016-11-27T02:30:36.675Z,3.41
2016-11-27T02:35:33.068Z,3.40
2016-11-27T02:40:29.444Z,3.50
2016-11-27T02:45:26.577Z,3.55
2016-11-27T02:50:23.083Z,3.63
2016-11-27T02:55:19.534Z,3.65
2016-11-27T03:00:15.975Z,3.66
2016-11-27T03:05:12.332Z,3.73
2016-11-27T03:10:08.979Z,3.83
2016-11-27T03:15:08.578Z,3.94
2016-11-27T03:20:04.440Z,4.01
2016-11-27T03:25:00.851Z,4.01
2016-11-27T03:29:58.010Z,4.13
2016-11-27T03:34:54.464Z,4.14
2016-11-27T03:39:50.753Z,4.19
2016-11-27T03:44:48.332Z,4.22
2016-11-27T03:49:44.753Z,4.20
2016-11-27T03:54:41.251Z,4.30
2016-11-27T03:59:37.570Z,4.28
2016-11-27T04:04:34.026Z,4.28
2016-11-27T04:09:30.282Z,4.28
2016-11-27T04:14:26.750Z,4.23
2016-11-27T04:19:23.776Z,4.34
2016-11-27T04:24:20.114Z,4.35
2016-11-27T04:29:16.610Z,4.50
2016-11-27T04:34:12.949Z,4.37
2016-11-27T04:39:09.505Z,4.42
2016-11-27T04:44:05.654Z,4.45
2016-11-27T04:49:02.307Z,4.41
2016-11-27T04:53:59.682Z,4.52
2016-11-27T04:58:56.751Z,4.38
2016-11-27T05:03:53.186Z,4.38
2016-11-27T05:08:49.908Z,4.42
2016-11-27T05:13:46.225Z,4.48
2016-11-27T05:18:42.673Z,4.56
2016-11-27T05:23:38.967Z,4.53
2016-11-27T05:28:35.344Z,4.53
2016-11-27T05:33:31.661Z,4.59
2016-11-27T05:38:28.058Z,4.60
2016-11-27T05:43:24.548Z,4.59
2016-11-27T05:48:21.242Z,4.67
2016-11-27T05:53:17.481Z,4.63
2016-11-27T05:58:14.026Z,4.63
2016-11-27T06:03:11.403Z,4.63
2016-11-27T06:08:07.486Z,4.73
2016-11-27T06:13:03.936Z,4.67
2016-11-27T06:18:01.155Z,4.80
2016-11-27T06:22:57.842Z,4.87
2016-11-27T06:27:54.399Z,4.94
2016-11-27T06:32:50.831Z,4.86
2016-11-27T06:37:47.191Z,4.96
2016-11-27T06:42:43.579Z,4.99
2016-11-27T06:47:40.776Z,4.90
2016-11-27T06:52:38.048Z,4.94
2016-11-27T06:57:34.489Z,4.94
2016-11-27T07:02:31.082Z,5.00
2016-11-27T07:07:27.460Z,5.12
2016-11-27T07:12:23.979Z,5.15
2016-11-27T07:17:21.335Z,4.97
2016-11-27T07:22:17.685Z,4.84
2016-11-27T07:27:14.345Z,4.89
2016-11-27T07:32:10.760Z,5.00
2016-11-27T07:37:07.217Z,5.23
2016-11-27T07:42:03.735Z,5.21
2016-11-27T07:47:01.178Z,5.23
2016-11-27T07:51:57.714Z,5.35
2016-11-27T07:56:54.172Z,5.28
2016-11-27T08:01:50.779Z,5.29
2016-11-27T08:06:47.472Z,5.43
2016-11-27T08:11:43.951Z,5.43
2016-11-27T08:16:40.499Z,5.50
2016-11-27T08:21:36.956Z,5.69
2016-11-27T08:26:33.707Z,5.76
2016-11-27T08:31:31.408Z,5.80
2016-11-27T08:36:27.818Z,5.89
2016-11-27T08:41:24.383Z,6.02
2016-11-27T08:46:21.018Z,6.17
2016-11-27T08:51:17.481Z,6.35
2016-11-27T08:56:13.942Z,6.35
2016-11-27T09:01:10.081Z,6.48
2016-11-27T09:06:06.979Z,6.77
2016-11-27T09:11:03.315Z,6.77
2016-11-27T09:15:59.770Z,6.84
2016-11-27T09:20:56.375Z,7.07
2016-11-27T09:25:53.035Z,7.18
2016-11-27T09:30:49.578Z,7.15
2016-11-27T09:35:46.343Z,7.17
2016-11-27T09:40:43.665Z,7.07
2016-11-27T09:45:40.598Z,7.03
2016-11-27T09:50:36.717Z,7.02
2016-11-27T09:55:33.254Z,6.89
2016-11-27T10:00:29.749Z,6.89
2016-11-27T10:05:26.490Z,7.21
2016-11-27T10:10:23.175Z,7.36
2016-11-27T10:15:20.855Z,7.60
2016-11-27T10:20:17.594Z,7.40
2016-11-27T10:25:14.103Z,7.17
2016-11-27T10:30:11.171Z,6.97
2016-11-27T10:35:07.773Z,7.32
2016-11-27T10:40:04.877Z,8.06
2016-11-27T10:45:01.628Z,7.82
2016-11-27T10:50:01.187Z,7.57
2016-11-27T10:54:57.775Z,8.20
2016-11-27T10:59:55.164Z,9.18
2016-11-27T11:04:51.972Z,9.68
2016-11-27T11:09:49.009Z,10.09
2016-11-27T11:14:45.604Z,9.51
2016-11-27T11:19:42.129Z,9.18
2016-11-27T11:24:39.022Z,9.84
2016-11-27T11:29:35.428Z,9.41
2016-11-27T11:34:34.175Z,8.94
2016-11-27T11:39:30.623Z,8.28
2016-11-27T11:44:26.984Z,8.28
2016-11-27T11:49:23.218Z,8.37
2016-11-27T11:54:19.726Z,8.34
2016-11-27T11:59:16.126Z,8.24
2016-11-27T12:04:12.386Z,8.16
2016-11-27T12:09:08.570Z,8.26
2016-11-27T12:14:05.360Z,8.16
2016-11-27T12:19:02.703Z,8.09
2016-11-27T12:23:59.137Z,8.15
2016-11-27T12:28:55.636Z,7.97
2016-11-27T12:33:51.959Z,7.85
2016-11-27T12:38:48.269Z,7.83
2016-11-27T12:43:44.838Z,7.82
2016-11-27T12:48:41.147Z,7.76
2016-11-27T12:53:38.858Z,7.88
2016-11-27T12:58:35.001Z,8.12
2016-11-27T13:03:31.709Z,8.08
2016-11-27T13:08:28.276Z,8.30
2016-11-27T13:13:25.002Z,8.58
2016-11-27T13:18:21.312Z,8.84
2016-11-27T13:23:18.006Z,8.91
2016-11-27T13:28:14.536Z,8.99
2016-11-27T13:33:11.236Z,8.85
2016-11-27T13:38:07.544Z,8.74
2016-11-27T13:43:03.915Z,8.69
2016-11-27T13:48:00.389Z,8.31
2016-11-27T13:52:56.651Z,8.03
2016-11-27T13:57:52.953Z,7.87
2016-11-27T14:02:49.514Z,7.87
2016-11-27T14:07:45.988Z,7.77
2016-11-27T14:12:44.612Z,7.85
2016-11-27T14:17:40.565Z,7.77
2016-11-27T14:22:37.282Z,8.03
2016-11-27T14:27:33.626Z,7.98
2016-11-27T14:32:30.806Z,7.98
2016-11-27T14:37:28.062Z,7.88
2016-11-27T14:42:24.151Z,7.56
2016-11-27T14:47:20.829Z,7.50
2016-11-27T14:52:17.309Z,7.40
2016-11-27T14:57:14.231Z,7.35
2016-11-27T15:02:10.921Z,7.29
2016-11-27T15:07:08.180Z,7.31
2016-11-27T15:12:05.405Z,7.25
2016-11-27T15:17:01.686Z,7.25
2016-11-27T15:21:58.032Z,6.95
2016-11-27T15:26:54.605Z,6.72
2016-11-27T15:31:50.864Z,6.57
2016-11-27T15:36:47.057Z,6.44
2016-11-27T15:41:43.203Z,6.22
2016-11-27T15:46:39.653Z,5.83
2016-11-27T15:51:37.043Z,5.68
2016-11-27T15:56:33.163Z,5.56
2016-11-27T16:01:29.354Z,5.71
2016-11-27T16:06:25.870Z,5.83
2016-11-27T16:11:22.376Z,5.99
2016-11-27T16:16:19.035Z,6.24
2016-11-27T16:21:15.625Z,6.45
2016-11-27T16:26:12.127Z,6.17
2016-11-27T16:31:08.665Z,6.07
2016-11-27T16:36:05.077Z,5.91
2016-11-27T16:41:01.854Z,5.66
2016-11-27T16:45:58.189Z,5.48
2016-11-27T16:50:56.183Z,5.25
2016-11-27T16:55:52.047Z,5.05
2016-11-27T17:00:48.541Z,4.92
2016-11-27T17:05:45.501Z,4.75
2016-11-27T17:10:42.391Z,4.70
2016-11-27T17:15:38.679Z,4.63
2016-11-27T17:20:34.916Z,4.66
2016-11-27T17:25:31.441Z,4.49
2016-11-27T17:30:29.420Z,4.52
2016-11-27T17:35:25.503Z,4.35
2016-11-27T17:40:21.997Z,4.35
2016-11-27T17:45:19.180Z,4.30
2016-11-27T17:50:15.574Z,4.28
2016-11-27T17:55:12.146Z,4.26
2016-11-27T18:00:08.909Z,4.32
2016-11-27T18:05:05.333Z,4.22
2016-11-27T18:10:01.910Z,4.12
2016-11-27T18:14:58.328Z,4.02
2016-11-27T18:19:54.433Z,3.95
2016-11-27T18:24:51.192Z,3.73
2016-11-27T18:29:47.483Z,3.58
2016-11-27T18:34:43.779Z,3.56
2016-11-27T18:39:40.066Z,3.60
2016-11-27T18:44:36.340Z,3.68
2016-11-27T18:49:32.766Z,3.74
2016-11-27T18:54:29.112Z,3.60
2016-11-27T18:59:25.433Z,3.37
2016-11-27T19:04:23.026Z,3.31
2016-11-27T19:09:19.116Z,3.34
2016-11-27T19:14:15.235Z,3.36
2016-11-27T19:19:11.637Z,3.26
2016-11-27T19:24:08.131Z,3.19
2016-11-27T19:29:05.192Z,3.08
2016-11-27T19:34:01.575Z,3.04
2016-11-27T19:38:57.870Z,2.89
2016-11-27T19:43:54.114Z,2.82
2016-11-27T19:48:50.470Z,2.83
2016-11-27T19:53:46.946Z,2.75
2016-11-27T19:58:43.247Z,2.75
2016-11-27T20:03:39.641Z,2.68
2016-11-27T20:08:36.148Z,2.53
2016-11-27T20:13:32.510Z,2.57
2016-11-27T20:18:29.037Z,2.60
2016-11-27T20:23:25.340Z,2.54
2016-11-27T20:28:21.932Z,2.71
2016-11-27T20:33:18.310Z,2.64
2016-11-27T20:38:14.596Z,2.57
2016-11-27T20:43:10.884Z,2.46
2016-11-27T20:48:07.279Z,2.39
2016-11-27T20:53:03.582Z,2.32
2016-11-27T20:57:59.959Z,2.20
2016-11-27T21:02:56.030Z,2.15
2016-11-27T21:07:52.435Z,2.08
2016-11-27T21:12:48.789Z,2.13
2016-11-27T21:17:45.058Z,2.22
2016-11-27T21:22:41.646Z,2.31
2016-11-27T21:27:38.083Z,2.26
2016-11-27T21:32:34.497Z,2.39
2016-11-27T21:37:30.875Z,2.17
2016-11-27T21:42:27.312Z,2.28
2016-11-27T21:47:23.548Z,2.17
2016-11-27T21:52:19.837Z,2.24
2016-11-27T21:57:16.134Z,2.22
2016-11-27T22:02:13.579Z,2.15
2016-11-27T22:07:09.792Z,1.91
2016-11-27T22:12:06.634Z,1.74
2016-11-27T22:17:03.007Z,1.80
2016-11-27T22:21:59.350Z,1.92
2016-11-27T22:26:55.458Z,1.87
2016-11-27T22:31:51.843Z,1.88
2016-11-27T22:36:48.144Z,1.77
2016-11-27T22:41:44.678Z,1.87
2016-11-27T22:46:41.021Z,1.85
2016-11-27T22:51:38.111Z,1.62
2016-11-27T22:56:34.405Z,1.63
2016-11-27T23:01:30.747Z,1.41
2016-11-27T23:06:27.074Z,1.22
2016-11-27T23:11:23.359Z,1.12
2016-11-27T23:16:19.702Z,1.05
2016-11-27T23:21:16.075Z,0.95
2016-11-27T23:26:12.246Z,1.01
2016-11-27T23:31:08.447Z,0.92
2016-11-27T23:36:04.450Z,0.87
2016-11-27T23:41:01.101Z,0.81
2016-11-27T23:45:57.343Z,0.91
2016-11-27T23:50:53.715Z,0.84
2016-11-27T23:55:50.082Z,0.73
